Time;durP1;ratioP1;P1;durP2;ratioP2;P2;SDS_P1;SDS_P2;PMS_P1;PMS_P2;Temp;Humidity;BMP_temperature;BMP_pressure;BME280_temperature;BME280_humidity;BME280_pressure;Samples;Min_cycle;Max_cycle;Signal;HPM_P1;HPM_P2
2022/05/15 06:44:28;;;;;;;;;;;;;;;22.37;51.24;101620.69;2415553;72;22225;-70
2022/05/15 06:52:47;;;;;;;76.10;8.75;;;;;;;23.47;48.33;101619.00;2426809;72;25950;-76
2022/05/15 06:59:09;;;;;;;74.22;7.80;;;;;;;23.51;45.83;101625.70;2186903;78;111612;-70
2022/05/15 07:02:11;;;;;;;65.52;8.45;;;;;;;23.47;45.58;101628.45;2151620;81;50341;-78
2022/05/15 07:07:26;;;;;;;50.38;7.22;;;;;;;23.87;45.89;101605.91;2445479;72;25925;-76
2022/05/15 07:10:28;;;;;;;53.33;6.53;;;;;;;24.01;44.64;101606.84;2303678;73;50454;-74
2022/05/15 07:13:32;;;;;;;59.08;5.97;;;;;;;23.94;44.08;101601.37;2244496;76;51459;-74
2022/05/15 07:16:34;;;;;;;45.40;5.95;;;;;;;23.89;43.97;101608.73;2248735;77;50144;-73
2022/05/15 07:19:36;;;;;;;58.70;6.78;;;;;;;23.84;43.74;101608.97;2268057;77;50175;-71
2022/05/15 07:22:39;;;;;;;29.00;3.77;;;;;;;23.83;43.60;101616.25;2244809;77;50547;-75
2022/05/15 07:25:42;;;;;;;27.80;3.65;;;;;;;24.03;43.46;101612.38;2199542;79;49858;-75
2022/05/15 07:28:50;;;;;;;17.20;3.55;;;;;;;23.92;43.29;101611.56;2128728;81;52564;-75
2022/05/15 07:31:50;;;;;;;19.25;2.98;;;;;;;23.90;43.32;101617.67;2213830;77;28846;-73
2022/05/15 07:34:52;;;;;;;50.45;6.33;;;;;;;23.93;43.24;101607.81;2241181;76;116046;-75
2022/05/15 07:37:54;;;;;;;51.53;6.58;;;;;;;24.10;42.84;101614.62;2267797;77;50305;-76
2022/05/15 07:40:56;;;;;;;53.30;6.50;;;;;;;24.08;42.76;101613.14;2289665;75;51474;-77
2022/05/15 07:44:00;;;;;;;56.10;7.52;;;;;;;24.05;42.63;101614.89;2222392;76;1817361;-76
2022/05/15 07:47:02;;;;;;;23.83;4.90;;;;;;;24.00;42.51;101610.06;2200884;77;32013;-77
2022/05/15 07:50:05;;;;;;;27.13;4.60;;;;;;;24.08;42.56;101613.14;2220543;77;79901;-76
2022/05/15 07:53:07;;;;;;;26.52;4.05;;;;;;;24.01;42.69;101612.25;2196682;76;48199;-76
2022/05/15 07:56:13;;;;;;;24.00;4.83;;;;;;;23.99;42.65;101609.73;2169011;80;48762;-76
2022/05/15 07:59:15;;;;;;;32.23;4.62;;;;;;;23.97;42.81;101611.81;2170060;81;48932;-76
2022/05/15 08:02:18;;;;;;;32.28;4.67;;;;;;;23.97;42.72;101613.66;2168033;81;47512;-76
2022/05/15 08:08:41;;;;;;;73.10;8.70;;;;;;;23.94;44.72;101617.59;2208542;78;70286;-73
2022/05/15 08:11:43;;;;;;;60.17;9.10;;;;;;;23.79;43.50;101610.08;2181282;79;48738;-73
2022/05/15 08:14:46;;;;;;;78.50;8.68;;;;;;;23.70;43.68;101612.88;2208950;78;48871;-73
2022/05/15 08:17:48;;;;;;;67.45;8.53;;;;;;;23.65;43.73;101612.63;2158053;79;48721;-73
2022/05/15 08:24:10;;;;;;;66.92;8.15;;;;;;;23.59;43.79;101609.36;2158206;82;22462;-74
2022/05/15 08:27:13;;;;;;;68.07;9.38;;;;;;;23.58;43.81;101615.81;2127769;82;47720;-74
2022/05/15 08:30:15;;;;;;;70.75;8.95;;;;;;;23.58;43.83;101613.11;2128820;82;47644;-74
2022/05/15 08:33:17;;;;;;;65.83;8.20;;;;;;;23.56;43.83;101617.03;2106989;82;46421;-73
2022/05/15 08:36:19;;;;;;;46.92;6.75;;;;;;;23.53;43.79;101620.09;2138100;81;47317;-73
2022/05/15 08:39:22;;;;;;;69.15;8.50;;;;;;;23.53;43.81;101611.98;2194762;81;47909;-73
2022/05/15 08:42:36;;;;;;;46.60;7.62;;;;;;;23.47;43.88;101612.25;2164202;81;48838;-74
2022/05/15 08:45:40;;;;;;;56.08;7.95;;;;;;;23.47;43.87;101610.90;2194667;81;47641;-75
2022/05/15 08:48:42;;;;;;;50.58;7.25;;;;;;;23.45;43.96;101604.84;2194847;81;48791;-74
2022/05/15 08:51:48;;;;;;;45.98;6.85;;;;;;;23.43;44.01;101609.11;2164315;81;47643;-74
2022/05/15 08:54:56;;;;;;;;;;;;;;;23.43;44.06;101605.58;2246450;77;47700;-75
2022/05/15 08:58:06;;;;;;;48.63;6.70;;;;;;;23.38;44.26;101614.25;2249412;77;47056;-74
2022/05/15 09:01:09;;;;;;;45.78;8.18;;;;;;;23.39;44.24;101611.86;2219824;79;48873;-74
2022/05/15 09:04:12;;;;;;;42.20;6.20;;;;;;;23.40;44.29;101601.39;2249560;77;48962;-75
2022/05/15 09:07:20;;;;;;;51.23;7.75;;;;;;;23.37;44.37;101609.85;2249706;77;48906;-76
2022/05/15 09:10:25;;;;;;;50.52;7.90;;;;;;;23.34;44.41;101614.30;2249771;77;48105;-75
2022/05/15 09:13:42;;;;;;;;;;;;;;;23.33;44.38;101612.63;2252227;77;47663;-73
2022/05/15 09:16:56;;;;;;;50.67;5.90;;;;;;;23.41;44.03;101607.63;2220137;77;47363;-73
2022/05/15 09:20:03;;;;;;;51.90;6.50;;;;;;;23.34;43.70;101608.06;2198855;78;47828;-73
2022/05/15 09:23:11;;;;;;;43.78;6.90;;;;;;;23.32;44.04;101608.77;2193345;79;48017;-75
2022/05/15 09:26:17;;;;;;;40.30;6.97;;;;;;;23.26;44.08;101602.27;2171083;81;47043;-74
2022/05/15 09:29:21;;;;;;;49.35;7.35;;;;;;;23.24;44.27;101595.70;2193547;79;48052;-73
2022/05/15 09:32:40;;;;;;;44.73;7.17;;;;;;;23.26;44.32;101600.39;2193798;79;48936;-75
2022/05/15 09:35:46;;;;;;;41.42;7.05;;;;;;;23.24;44.33;101598.39;2193170;79;47513;-73
2022/05/15 09:38:49;;;;;;;51.42;7.00;;;;;;;23.25;44.33;101594.69;2191124;79;48973;-75
2022/05/15 09:45:27;;;;;;;39.13;6.15;;;;;;;23.20;44.16;101582.80;2190782;79;22489;-75
2022/05/15 09:48:32;;;;;;;42.85;6.15;;;;;;;23.16;44.23;101595.81;2171538;81;48903;-75
2022/05/15 09:51:44;;;;;;;;;;;;;;;23.16;44.20;101590.42;2196504;81;48124;-73
2022/05/15 09:54:47;;;;;;;39.98;6.00;;;;;;;23.12;44.22;101577.00;2191113;79;46767;-73
2022/05/15 09:57:57;;;;;;;31.30;6.05;;;;;;;23.11;44.21;101576.66;2190872;81;47964;-76
2022/05/15 10:01:22;;;;;;;42.13;5.67;;;;;;;23.10;44.23;101569.59;2149018;81;47560;-75
2022/05/15 10:04:27;;;;;;;33.10;5.50;;;;;;;23.07;44.20;101582.13;2171400;80;48883;-75
2022/05/15 10:07:40;;;;;;;27.42;5.47;;;;;;;23.09;44.14;101580.57;2190927;81;48722;-75
2022/05/15 10:10:46;;;;;;;31.50;5.12;;;;;;;23.02;44.26;101585.39;2190240;81;22326;-75
2022/05/15 10:13:52;;;;;;;27.77;5.10;;;;;;;23.03;44.27;101572.73;2189956;79;47630;-75
2022/05/15 10:16:56;;;;;;;33.67;5.65;;;;;;;23.06;44.20;101572.86;2170658;79;48066;-75
2022/05/15 10:20:18;;;;;;;33.55;5.28;;;;;;;23.04;44.24;101573.03;2190430;81;48681;-73
2022/05/15 10:23:26;;;;;;;29.35;5.78;;;;;;;23.01;44.24;101570.72;2189866;81;48862;-74
2022/05/15 10:26:35;;;;;;;25.08;4.72;;;;;;;23.02;44.20;101567.02;2170661;81;47259;-72
2022/05/15 10:30:02;;;;;;;23.70;4.92;;;;;;;22.99;44.24;101561.48;2190202;81;48933;-73
2022/05/15 10:33:10;;;;;;;27.62;5.03;;;;;;;23.00;44.17;101560.45;2188739;79;47473;-73
2022/05/15 10:36:30;;;;;;;26.07;4.55;;;;;;;22.99;44.15;101557.44;2189900;80;47594;-73
2022/05/15 10:39:45;;;;;;;28.32;4.35;;;;;;;22.95;44.19;101550.70;2190021;80;47712;-73
2022/05/15 10:43:09;;;;;;;33.67;5.67;;;;;;;22.90;44.27;101542.86;2170223;81;47200;-73
2022/05/15 10:46:32;;;;;;;33.18;5.08;;;;;;;22.92;44.25;101538.94;2189750;79;47634;-74
2022/05/15 10:49:46;;;;;;;23.73;4.12;;;;;;;22.92;44.21;101539.46;2130743;83;47957;-74
2022/05/15 10:57:21;;;;;;;26.52;4.37;;;;;;;22.88;44.26;101530.89;2169749;81;49347;-73
2022/05/15 11:00:18;;;;;;;16.87;3.45;;;;;;;22.87;44.22;101536.50;2190812;79;22515;-75
2022/05/15 11:03:50;;;;;;;25.50;4.42;;;;;;;22.89;44.17;101535.77;2190057;81;48857;-74
2022/05/15 11:07:04;;;;;;;16.35;3.58;;;;;;;22.87;44.22;101533.80;2197005;78;47551;-75
2022/05/15 11:10:25;;;;;;;15.40;3.65;;;;;;;22.87;44.20;101536.50;2203759;79;50020;-74
2022/05/15 11:13:31;;;;;;;16.97;3.95;;;;;;;22.83;44.21;101541.42;2228173;79;48815;-74
2022/05/15 11:16:39;;;;;;;17.60;3.35;;;;;;;22.83;44.19;101530.62;2228504;78;47583;-74
2022/05/15 11:19:46;;;;;;;14.58;3.35;;;;;;;22.87;44.13;101529.23;2188301;79;47040;-74
2022/05/15 11:22:50;;;;;;;19.12;3.67;;;;;;;22.80;44.26;101527.80;2227955;79;47774;-74
2022/05/15 11:26:05;;;;;;;17.70;3.90;;;;;;;22.84;44.13;101526.92;2227219;78;48904;-74
2022/05/15 11:29:10;;;;;;;15.93;3.72;;;;;;;22.88;44.04;101527.36;2225982;79;47927;-73
2022/05/15 11:32:28;;;;;;;;;;;;;;;22.91;43.93;101528.33;2230977;78;48768;-75
2022/05/15 11:35:33;;;;;;;18.15;3.37;;;;;;;22.86;43.93;101520.80;2228628;78;47375;-74
2022/05/15 11:38:50;;;;;;;18.17;3.90;;;;;;;22.89;43.92;101515.53;2181195;79;48864;-74
2022/05/15 11:42:14;;;;;;;10.30;3.02;;;;;;;22.90;43.88;101515.88;2203630;78;48059;-76
2022/05/15 11:45:38;;;;;;;12.82;3.05;;;;;;;22.89;43.87;101508.78;2228377;78;22332;-75
2022/05/15 11:48:47;;;;;;;13.32;3.05;;;;;;;22.91;43.92;101504.87;2228430;78;47846;-77
2022/05/15 11:51:59;;;;;;;15.75;2.83;;;;;;;22.90;43.83;101506.42;2228094;79;22527;-74
2022/05/15 11:55:01;;;;;;;16.85;3.35;;;;;;;22.92;43.76;101503.03;2188599;78;48258;-75
2022/05/15 11:58:31;;;;;;;15.58;3.40;;;;;;;22.95;43.70;101493.19;2228600;78;48713;-75
2022/05/15 12:01:38;;;;;;;18.45;3.47;;;;;;;22.92;43.78;101489.53;2228731;78;22411;-74
2022/05/15 12:04:43;;;;;;;11.97;3.27;;;;;;;22.92;43.73;101494.94;2228583;78;48804;-75
2022/05/15 12:07:52;;;;;;;;;;;;;;;22.89;43.74;101484.49;2219771;79;48873;-74
2022/05/15 12:10:59;;;;;;;15.05;2.75;;;;;;;22.85;43.78;101487.27;2228710;78;46887;-76
2022/05/15 12:14:21;;;;;;;13.28;2.98;;;;;;;22.88;43.74;101480.97;2203255;78;48992;-75
2022/05/15 12:17:29;;;;;;;10.58;2.75;;;;;;;22.89;43.70;101477.75;2228295;78;48883;-75
2022/05/15 12:20:34;;;;;;;12.10;2.75;;;;;;;22.90;43.65;101469.99;2180634;79;47381;-75
2022/05/15 12:23:36;;;;;;;;;;;;;;;22.89;43.61;101466.47;2231064;78;48078;-74
2022/05/15 12:26:48;;;;;;;11.50;2.75;;;;;;;22.85;43.61;101465.69;2228672;78;46868;-74
2022/05/15 12:30:11;;;;;;;10.38;2.17;;;;;;;22.89;43.54;101463.77;2203845;79;47776;-75
2022/05/15 12:33:13;;;;;;;8.80;2.77;;;;;;;22.90;43.49;101463.25;2228368;78;49559;-75
2022/05/15 12:36:37;;;;;;;12.55;3.40;;;;;;;22.90;43.50;101459.20;2228671;78;47759;-74
2022/05/15 12:39:44;;;;;;;10.08;2.67;;;;;;;22.92;43.34;101455.28;2204178;79;49072;-75
2022/05/15 12:42:52;;;;;;;9.98;2.27;;;;;;;22.93;43.41;101460.16;2228713;78;48823;-75
2022/05/15 12:45:55;;;;;;;10.90;2.40;;;;;;;22.92;43.38;101455.80;2228179;78;22269;-75
2022/05/15 12:48:57;;;;;;;9.25;3.00;;;;;;;22.89;43.48;101450.77;2228649;79;47649;-76
2022/05/15 12:52:19;;;;;;;9.68;2.47;;;;;;;22.89;43.49;101446.72;2181321;79;48717;-75
2022/05/15 12:55:29;;;;;;;6.97;2.20;;;;;;;22.90;43.46;101443.84;2203895;78;49125;-76
2022/05/15 12:58:33;;;;;;;8.60;2.33;;;;;;;22.94;43.40;101438.88;2204292;79;48793;-74
2022/05/15 13:01:35;;;;;;;10.93;2.33;;;;;;;22.95;43.36;101444.09;2228509;79;47122;-75
2022/05/15 13:04:39;;;;;;;14.93;2.40;;;;;;;22.95;43.34;101433.81;2204410;78;47944;-75
2022/05/15 13:07:41;;;;;;;7.17;2.30;;;;;;;22.95;43.34;101436.52;2201264;78;47817;-75
2022/05/15 13:10:46;;;;;;;7.12;2.12;;;;;;;22.98;43.29;101433.45;2192896;80;48709;-75
2022/05/15 13:13:48;;;;;;;10.38;2.42;;;;;;;23.00;43.23;101442.20;2193512;80;47888;-77
2022/05/15 13:16:55;;;;;;;7.22;2.02;;;;;;;22.99;43.28;101431.06;2195489;79;48081;-75
2022/05/15 13:19:55;;;;;;;6.03;2.10;;;;;;;22.93;43.42;101424.55;2194049;79;21669;-75
2022/05/15 13:22:59;;;;;;;7.55;2.22;;;;;;;22.97;43.36;101429.93;2191577;79;48609;-75
2022/05/15 13:26:01;;;;;;;5.37;1.95;;;;;;;22.94;43.44;101425.38;2192687;79;22203;-75
2022/05/15 13:29:05;;;;;;;7.28;2.15;;;;;;;22.92;43.49;101418.02;2172326;81;47202;-76
2022/05/15 13:32:07;;;;;;;8.95;2.15;;;;;;;22.92;43.50;101414.80;2191574;79;48704;-75
2022/05/15 13:35:10;;;;;;;6.55;2.05;;;;;;;22.83;43.71;101418.12;2192338;80;48635;-75
2022/05/15 13:38:21;;;;;;;6.22;2.10;;;;;;;22.87;43.67;101416.41;2151003;81;47330;-75
2022/05/15 13:44:45;;;;;;;8.95;2.05;;;;;;;22.86;43.76;101418.77;2195387;79;22128;-75
2022/05/15 13:48:09;;;;;;;5.90;1.80;;;;;;;22.82;43.79;101419.16;2193391;79;47896;-75
2022/05/15 13:51:14;;;;;;;5.40;1.67;;;;;;;22.75;43.92;101407.46;2191859;79;47904;-75
2022/05/15 13:54:23;;;;;;;;;;;;;;;22.69;44.10;101402.84;2194022;79;47855;-75
2022/05/15 13:57:26;;;;;;;4.72;1.75;;;;;;;22.74;44.07;101403.63;2192148;79;47295;-75
2022/05/15 14:00:29;;;;;;;7.30;2.05;;;;;;;22.73;44.07;101397.37;2172339;81;47503;-75
2022/05/15 14:03:34;;;;;;;5.08;2.12;;;;;;;22.74;44.11;101399.06;2192208;79;48053;-74
2022/05/15 14:06:38;;;;;;;7.45;1.87;;;;;;;22.73;44.13;101396.02;2193895;79;48037;-76
2022/05/15 14:09:48;;;;;;;5.33;2.10;;;;;;;22.76;44.11;101389.41;2174865;81;47946;-76
2022/05/15 14:12:56;;;;;;;7.85;2.35;;;;;;;22.77;44.12;101384.34;2193154;79;48592;-73
2022/05/15 14:15:58;;;;;;;6.08;1.80;;;;;;;22.86;43.97;101387.73;2190739;80;47297;-74
2022/05/15 14:19:03;;;;;;;7.75;2.10;;;;;;;22.82;44.05;101380.55;2148479;81;47049;-73
2022/05/15 14:22:05;;;;;;;;;;;;;;;22.89;44.00;101381.95;2191182;80;48636;-73
2022/05/15 14:25:09;;;;;;;5.85;1.80;;;;;;;22.86;44.07;101380.99;2190504;79;47144;-74
2022/05/15 14:28:13;;;;;;;4.65;1.65;;;;;;;22.91;43.98;101389.34;2170499;81;46674;-73
2022/05/15 14:31:15;;;;;;;4.35;1.60;;;;;;;22.96;43.90;101389.59;2171019;81;47781;-74
2022/05/15 14:34:18;;;;;;;5.17;1.57;;;;;;;22.93;43.95;101384.59;2190092;80;47842;-74
2022/05/15 14:37:20;;;;;;;4.60;1.57;;;;;;;22.96;43.91;101380.15;2171612;81;47185;-74
2022/05/15 14:40:22;;;;;;;9.98;2.17;;;;;;;22.99;43.87;101377.95;2190575;80;47827;-73
2022/05/15 14:43:24;;;;;;;5.72;1.65;;;;;;;23.03;43.82;101375.68;2170210;79;48988;-73
2022/05/15 14:46:27;;;;;;;3.70;1.67;;;;;;;23.06;43.75;101373.94;2170720;81;48591;-73
2022/05/15 14:49:30;;;;;;;6.60;1.72;;;;;;;23.07;43.77;101373.41;2190226;79;47379;-74
2022/05/15 14:52:32;;;;;;;2.87;1.30;;;;;;;23.03;43.88;101374.33;2190114;79;48644;-73
2022/05/15 14:59:01;;;;;;;7.00;1.67;;;;;;;23.05;43.85;101364.18;2190708;81;21724;-74
2022/05/15 15:02:03;;;;;;;3.77;1.40;;;;;;;23.08;43.79;101363.78;2190042;79;47758;-74
2022/05/15 15:05:06;;;;;;;4.40;1.70;;;;;;;23.13;43.69;101358.63;2148430;81;47161;-73
2022/05/15 15:08:08;;;;;;;4.53;1.55;;;;;;;23.14;43.67;101361.64;2170658;81;48712;-73
2022/05/15 15:11:19;;;;;;;4.75;1.40;;;;;;;23.16;43.67;101355.53;2148066;79;47966;-74
2022/05/15 15:14:22;;;;;;;4.42;1.47;;;;;;;23.16;43.68;101353.36;2190070;80;47542;-74
2022/05/15 15:17:24;;;;;;;5.75;1.52;;;;;;;23.19;43.63;101357.84;2148263;79;50368;-75
2022/05/15 15:20:26;;;;;;;3.60;1.57;;;;;;;23.16;43.72;101343.91;2170619;81;48685;-75
2022/05/15 15:23:28;;;;;;;3.10;1.30;;;;;;;23.16;43.75;101347.44;2170558;81;48151;-74
2022/05/15 15:26:31;;;;;;;4.60;1.25;;;;;;;23.17;43.72;101345.07;2148033;81;46494;-73
2022/05/15 15:29:34;;;;;;;2.60;1.30;;;;;;;23.21;43.67;101340.10;2190037;79;47489;-74
2022/05/15 15:32:36;;;;;;;3.00;1.40;;;;;;;23.22;43.68;101339.91;2190022;81;48485;-74
2022/05/15 15:35:38;;;;;;;4.03;1.40;;;;;;;23.17;43.79;101336.97;2148386;81;47172;-74
2022/05/15 15:38:40;;;;;;;3.90;1.47;;;;;;;23.22;43.74;101340.41;2170724;81;47130;-74
2022/05/15 15:41:42;;;;;;;4.42;1.27;;;;;;;23.23;43.71;101338.87;2170476;81;47825;-74
2022/05/15 15:44:46;;;;;;;3.92;1.40;;;;;;;23.20;43.81;101336.58;2170952;80;47910;-74
2022/05/15 15:47:50;;;;;;;3.22;1.22;;;;;;;23.22;43.84;101329.61;2171137;81;48858;-74
2022/05/15 15:50:52;;;;;;;2.92;1.40;;;;;;;23.25;43.76;101335.47;2148497;81;48329;-75
2022/05/15 15:53:58;;;;;;;5.47;1.50;;;;;;;23.26;43.79;101323.62;2190354;80;48661;-74
2022/05/15 15:57:01;;;;;;;3.17;1.30;;;;;;;23.28;43.76;101320.73;2190471;79;48644;-73
2022/05/15 16:00:04;;;;;;;3.08;1.30;;;;;;;23.22;43.88;101312.91;2148169;81;47775;-73
2022/05/15 16:03:07;;;;;;;4.55;1.20;;;;;;;23.26;43.83;101316.88;2190397;81;47312;-75
2022/05/15 16:06:09;;;;;;;4.70;1.55;;;;;;;23.25;43.88;101305.77;2170784;81;46579;-74
2022/05/15 16:09:11;;;;;;;3.25;1.40;;;;;;;23.30;43.80;101302.97;2170725;79;47271;-74
2022/05/15 16:12:14;;;;;;;3.15;1.37;;;;;;;23.24;43.87;101302.73;2190388;79;47822;-74
2022/05/15 16:15:16;;;;;;;4.00;1.27;;;;;;;23.30;43.82;101296.22;2170920;79;48743;-74
2022/05/15 16:18:18;;;;;;;3.87;1.50;;;;;;;23.28;43.81;101290.20;2148133;81;47952;-74
2022/05/15 16:21:25;;;;;;;3.30;1.37;;;;;;;23.28;43.85;101285.63;2190359;81;47766;-74
2022/05/15 16:24:34;;;;;;;3.02;1.47;;;;;;;23.30;43.82;101284.92;2170243;80;48870;-74
2022/05/15 16:27:37;;;;;;;1.60;1.05;;;;;;;23.29;43.85;101278.36;2171202;79;48050;-73
2022/05/15 16:30:41;;;;;;;2.30;1.40;;;;;;;23.31;43.80;101279.00;2192277;81;47180;-74
2022/05/15 16:33:44;;;;;;;6.00;1.30;;;;;;;23.30;43.83;101281.36;2190037;80;47391;-74
2022/05/15 16:36:46;;;;;;;2.35;1.27;;;;;;;23.31;43.82;101283.05;2196145;76;48757;-76
2022/05/15 16:39:49;;;;;;;9.63;1.37;;;;;;;23.32;43.76;101280.13;2199048;78;48562;-76
2022/05/15 16:42:51;;;;;;;16.77;2.65;;;;;;;23.25;44.38;101285.52;2176008;78;48648;-75
2022/05/15 16:45:54;;;;;;;25.02;3.00;;;;;;;23.31;44.17;101281.17;2230829;78;48797;-76
2022/05/15 16:49:00;;;;;;;23.62;2.40;;;;;;;23.31;44.20;101288.45;2199715;78;48656;-75
2022/05/15 16:52:02;;;;;;;15.93;2.20;;;;;;;23.28;44.32;101291.03;2230419;78;48084;-75
2022/05/15 16:55:06;;;;;;;15.85;2.27;;;;;;;23.32;44.24;101294.98;2208400;78;48661;-74
2022/05/15 16:58:10;;;;;;;16.48;2.33;;;;;;;23.33;44.20;101294.49;2237991;77;22244;-75
2022/05/15 17:01:12;;;;;;;17.90;2.52;;;;;;;23.32;44.25;101296.86;2273196;75;48824;-75
2022/05/15 17:04:14;;;;;;;14.78;2.58;;;;;;;23.32;44.31;101291.45;2272606;77;47369;-76
2022/05/15 17:07:17;;;;;;;17.25;2.40;;;;;;;23.33;44.31;101292.62;2228046;75;47603;-76
2022/05/15 17:10:19;;;;;;;13.85;2.70;;;;;;;23.33;44.36;101287.74;2305726;74;47829;-75
2022/05/15 17:13:21;;;;;;;13.35;3.20;;;;;;;23.35;44.38;101289.70;2207518;78;46896;-75
2022/05/15 17:16:24;;;;;;;18.32;3.80;;;;;;;23.34;44.40;101294.27;2263393;78;48000;-75
2022/05/15 17:19:26;;;;;;;21.35;4.33;;;;;;;23.33;44.45;101287.74;2263306;78;48944;-75
2022/05/15 17:22:29;;;;;;;17.35;4.00;;;;;;;23.31;44.52;101289.80;2231196;78;47808;-75
2022/05/15 17:25:34;;;;;;;20.08;4.78;;;;;;;23.29;44.55;101289.16;2246481;75;47453;-75
2022/05/15 17:35:17;;;;;;;22.95;4.95;;;;;;;23.18;44.99;101284.63;2248111;78;21703;-75
2022/05/15 17:38:19;;;;;;;18.23;5.28;;;;;;;23.20;45.24;101287.15;2194463;78;49892;-75
2022/05/15 17:41:22;;;;;;;18.85;5.85;;;;;;;23.14;45.53;101290.62;2247567;78;47933;-74
2022/05/15 17:44:30;;;;;;;36.98;7.25;;;;;;;23.17;45.75;101284.33;2247414;78;47990;-75
2022/05/15 17:47:28;;;;;;;26.10;6.22;;;;;;;23.18;46.05;101282.45;2217852;78;22360;-74
2022/05/15 17:50:31;;;;;;;30.72;6.62;;;;;;;23.15;46.28;101282.86;2247351;78;47999;-73
2022/05/15 17:53:33;;;;;;;31.77;6.70;;;;;;;23.16;46.19;101286.69;2217814;78;48666;-74
2022/05/15 17:56:35;;;;;;;30.02;6.30;;;;;;;23.16;46.10;101286.69;2194312;79;51173;-74
2022/05/15 17:59:38;;;;;;;25.48;6.35;;;;;;;23.14;46.01;101289.27;2247240;78;47477;-74
2022/05/15 18:02:40;;;;;;;27.30;5.80;;;;;;;23.14;45.90;101288.75;2216722;79;49258;-74
2022/05/15 18:05:43;;;;;;;32.40;6.97;;;;;;;23.15;46.00;101297.70;2217324;79;47540;-74
2022/05/15 18:08:45;;;;;;;40.73;7.33;;;;;;;23.10;46.00;101288.84;2246963;79;48857;-75
2022/05/15 18:11:48;;;;;;;25.43;6.22;;;;;;;23.08;46.11;101288.20;2226475;78;47209;-74
2022/05/15 18:14:50;;;;;;;25.82;6.67;;;;;;;23.10;46.05;101288.84;2234088;78;47737;-75
2022/05/15 18:17:52;;;;;;;26.27;6.85;;;;;;;23.04;46.16;101286.91;2234295;78;48843;-77
2022/05/15 18:20:54;;;;;;;34.90;7.03;;;;;;;23.07;46.65;101291.95;2234095;78;48031;-72
2022/05/15 18:23:57;;;;;;;27.93;6.80;;;;;;;23.03;47.34;101287.44;2233495;78;47508;-72
2022/05/15 18:26:59;;;;;;;25.57;7.65;;;;;;;22.98;47.57;101295.81;2209916;78;46961;-71
2022/05/15 18:30:02;;;;;;;32.03;7.67;;;;;;;22.95;47.74;101294.83;2261582;78;48905;-74
2022/05/15 18:33:04;;;;;;;31.48;8.03;;;;;;;22.94;47.56;101296.70;2266783;77;47753;-73
2022/05/15 18:36:06;;;;;;;42.05;8.45;;;;;;;22.96;47.58;101296.48;2194340;78;46220;-72
2022/05/15 18:39:09;;;;;;;36.17;7.42;;;;;;;22.99;47.45;101295.63;2264958;77;48962;-71
2022/05/15 18:42:11;;;;;;;43.75;8.50;;;;;;;22.99;47.77;101298.81;2276669;77;48820;-71
2022/05/15 18:45:15;;;;;;;43.50;8.13;;;;;;;23.00;47.71;101305.91;2241735;77;48646;-72
2022/05/15 18:48:17;;;;;;;30.62;8.60;;;;;;;23.03;47.66;101299.58;2287317;77;48944;-73
2022/05/15 18:54:58;;;;;;;37.30;8.08;;;;;;;23.03;47.76;101307.68;2265958;77;21691;-73
2022/05/15 18:58:02;;;;;;;36.03;7.75;;;;;;;23.08;47.92;101304.92;2245343;77;48658;-75
2022/05/15 19:01:04;;;;;;;41.18;7.42;;;;;;;23.04;48.29;101309.86;2242117;78;49452;-75
2022/05/15 19:04:07;;;;;;;34.30;7.40;;;;;;;23.02;48.73;101310.08;2269366;77;48736;-74
2022/05/15 19:07:09;;;;;;;30.05;7.62;;;;;;;23.02;48.85;101312.77;2269661;77;47964;-75
2022/05/15 19:10:11;;;;;;;36.40;7.50;;;;;;;23.01;48.79;101308.91;2241649;77;48927;-73
2022/05/15 19:13:14;;;;;;;29.87;7.35;;;;;;;23.03;49.30;101319.00;2269468;77;47948;-72
2022/05/15 19:16:16;;;;;;;30.75;7.67;;;;;;;22.92;49.74;101313.59;2241072;77;47324;-74
2022/05/15 19:19:18;;;;;;;38.35;8.15;;;;;;;22.89;50.31;101323.44;2239890;78;48856;-75
2022/05/15 19:22:20;;;;;;;32.33;7.78;;;;;;;22.94;49.98;101331.78;2268917;77;48829;-74
2022/05/15 19:25:22;;;;;;;28.40;7.08;;;;;;;22.94;50.08;101333.13;2215712;78;48304;-75
2022/05/15 19:28:25;;;;;;;37.40;7.80;;;;;;;22.93;50.02;101326.56;2269037;78;48838;-75
2022/05/15 19:31:27;;;;;;;30.27;8.10;;;;;;;22.93;49.89;101327.92;2268976;77;47464;-73
2022/05/15 19:34:30;;;;;;;37.15;8.03;;;;;;;22.95;50.62;101323.16;2266614;77;48905;-74
2022/05/15 19:37:32;;;;;;;38.13;8.93;;;;;;;22.93;51.07;101331.97;2211467;78;47163;-74
2022/05/15 19:40:34;;;;;;;31.80;8.55;;;;;;;22.90;51.12;101326.45;2235996;78;46793;-73
2022/05/15 19:43:36;;;;;;;28.25;7.28;;;;;;;22.88;51.17;101326.32;2239445;77;48705;-73
2022/05/15 19:46:39;;;;;;;27.10;8.18;;;;;;;22.88;51.33;101329.84;2241243;78;48941;-74
2022/05/15 19:49:41;;;;;;;30.48;7.97;;;;;;;22.90;51.33;101331.02;2193801;77;49717;-73
2022/05/15 19:52:44;;;;;;;34.63;8.63;;;;;;;22.89;51.48;101340.12;2210042;78;48921;-72
2022/05/15 19:55:46;;;;;;;30.05;7.90;;;;;;;22.87;52.05;101348.95;2240057;78;48916;-72
2022/05/15 19:58:48;;;;;;;29.72;8.43;;;;;;;22.84;52.07;101352.88;2217742;78;48945;-72
2022/05/15 20:01:52;;;;;;;29.23;6.72;;;;;;;22.88;52.25;101351.95;2241485;78;48772;-72
2022/05/15 20:11:34;;;;;;;29.00;7.42;;;;;;;22.87;52.71;101352.48;2242401;77;22323;-71
2022/05/15 20:14:36;;;;;;;24.67;6.58;;;;;;;22.87;52.81;101355.70;2195850;79;47314;-74
2022/05/15 20:17:39;;;;;;;24.20;6.72;;;;;;;22.83;52.90;101357.41;2246388;79;48700;-74
2022/05/15 20:20:42;;;;;;;26.57;7.05;;;;;;;22.86;52.65;101357.53;2193925;79;47563;-73
2022/05/15 20:23:44;;;;;;;30.90;6.92;;;;;;;22.87;52.24;101353.83;2216738;79;48101;-72
